sensor_id;sensor_type;location;lat;lon;timestamp;pressure;altitude;pressure_sealevel;temperature;humidity
11395;BME280;5753;54.402;10.220;2023-09-08T00:00:09;102267.78;;;29.16;46.78
11395;BME280;5753;54.402;10.220;2023-09-08T00:02:35;102274.78;;;29.40;45.81
11395;BME280;5753;54.402;10.220;2023-09-08T00:05:01;102271.47;;;29.35;45.88
11395;BME280;5753;54.402;10.220;2023-09-08T00:07:27;102274.75;;;29.19;46.42
11395;BME280;5753;54.402;10.220;2023-09-08T00:09:53;102270.13;;;29.02;46.53
11395;BME280;5753;54.402;10.220;2023-09-08T00:12:19;102271.72;;;29.28;45.84
11395;BME280;5753;54.402;10.220;2023-09-08T00:14:46;102274.44;;;29.26;45.80
11395;BME280;5753;54.402;10.220;2023-09-08T00:17:12;102268.75;;;28.92;47.03
11395;BME280;5753;54.402;10.220;2023-09-08T00:19:38;102276.06;;;29.30;45.62
11395;BME280;5753;54.402;10.220;2023-09-08T00:22:04;102273.53;;;29.27;45.48
11395;BME280;5753;54.402;10.220;2023-09-08T00:24:34;102273.66;;;29.24;45.47
11395;BME280;5753;54.402;10.220;2023-09-08T00:27:00;102272.09;;;29.19;45.45
11395;BME280;5753;54.402;10.220;2023-09-08T00:29:26;102267.09;;;29.11;46.08
11395;BME280;5753;54.402;10.220;2023-09-08T00:31:52;102274.56;;;29.23;45.55
11395;BME280;5753;54.402;10.220;2023-09-08T00:34:18;102272.22;;;29.15;45.20
11395;BME280;5753;54.402;10.220;2023-09-08T00:36:44;102271.59;;;29.09;45.36
11395;BME280;5753;54.402;10.220;2023-09-08T00:39:10;102264.81;;;29.02;45.44
11395;BME280;5753;54.402;10.220;2023-09-08T00:41:36;102271.56;;;28.87;45.90
11395;BME280;5753;54.402;10.220;2023-09-08T00:44:02;102264.34;;;28.91;45.73
11395;BME280;5753;54.402;10.220;2023-09-08T00:46:29;102269.56;;;28.94;45.63
11395;BME280;5753;54.402;10.220;2023-09-08T00:48:56;102261.47;;;28.97;45.78
11395;BME280;5753;54.402;10.220;2023-09-08T00:51:22;102269.91;;;28.83;45.86
11395;BME280;5753;54.402;10.220;2023-09-08T00:53:49;102252.53;;;28.51;47.19
11395;BME280;5753;54.402;10.220;2023-09-08T00:56:15;102263.72;;;28.59;46.76
11395;BME280;5753;54.402;10.220;2023-09-08T00:58:41;102262.34;;;28.72;46.43
11395;BME280;5753;54.402;10.220;2023-09-08T01:01:08;102257.44;;;28.87;45.39
11395;BME280;5753;54.402;10.220;2023-09-08T01:03:34;102253.94;;;28.61;46.71
11395;BME280;5753;54.402;10.220;2023-09-08T01:06:00;102253.69;;;28.67;46.92
11395;BME280;5753;54.402;10.220;2023-09-08T01:08:27;102247.91;;;28.79;46.38
11395;BME280;5753;54.402;10.220;2023-09-08T01:10:53;102252.25;;;28.82;46.51
11395;BME280;5753;54.402;10.220;2023-09-08T01:13:19;102254.94;;;28.80;46.53
11395;BME280;5753;54.402;10.220;2023-09-08T01:15:46;102249.94;;;28.49;47.43
11395;BME280;5753;54.402;10.220;2023-09-08T01:18:12;102246.41;;;28.72;46.51
11395;BME280;5753;54.402;10.220;2023-09-08T01:23:28;102245.53;;;28.97;45.85
11395;BME280;5753;54.402;10.220;2023-09-08T01:26:04;102238.53;;;28.71;46.56
11395;BME280;5753;54.402;10.220;2023-09-08T01:28:34;102236.38;;;28.80;46.23
11395;BME280;5753;54.402;10.220;2023-09-08T01:31:00;102236.34;;;28.59;47.11
11395;BME280;5753;54.402;10.220;2023-09-08T01:33:27;102231.09;;;28.32;47.85
11395;BME280;5753;54.402;10.220;2023-09-08T01:35:53;102224.03;;;28.79;45.97
11395;BME280;5753;54.402;10.220;2023-09-08T01:38:21;102232.25;;;28.97;45.89
11395;BME280;5753;54.402;10.220;2023-09-08T01:40:47;102234.91;;;28.97;45.62
11395;BME280;5753;54.402;10.220;2023-09-08T01:43:13;102229.09;;;28.87;45.83
11395;BME280;5753;54.402;10.220;2023-09-08T01:45:39;102230.19;;;28.80;46.21
11395;BME280;5753;54.402;10.220;2023-09-08T01:48:06;102231.19;;;28.54;46.60
11395;BME280;5753;54.402;10.220;2023-09-08T01:50:32;102232.94;;;28.55;46.75
11395;BME280;5753;54.402;10.220;2023-09-08T01:52:58;102229.94;;;28.41;46.73
11395;BME280;5753;54.402;10.220;2023-09-08T01:55:24;102232.25;;;28.50;46.60
11395;BME280;5753;54.402;10.220;2023-09-08T01:57:50;102224.69;;;28.63;46.29
11395;BME280;5753;54.402;10.220;2023-09-08T02:00:16;102224.50;;;28.67;45.89
11395;BME280;5753;54.402;10.220;2023-09-08T02:02:42;102220.47;;;28.57;46.45
11395;BME280;5753;54.402;10.220;2023-09-08T02:05:08;102223.25;;;28.54;46.15
11395;BME280;5753;54.402;10.220;2023-09-08T02:07:35;102218.97;;;28.50;45.89
11395;BME280;5753;54.402;10.220;2023-09-08T02:10:01;102212.69;;;28.52;45.78
11395;BME280;5753;54.402;10.220;2023-09-08T02:12:27;102212.16;;;28.43;45.68
11395;BME280;5753;54.402;10.220;2023-09-08T02:14:53;102214.09;;;28.38;46.04
11395;BME280;5753;54.402;10.220;2023-09-08T02:17:19;102210.75;;;28.33;45.71
11395;BME280;5753;54.402;10.220;2023-09-08T02:19:45;102206.72;;;28.21;45.67
11395;BME280;5753;54.402;10.220;2023-09-08T02:22:12;102209.56;;;28.16;45.57
11395;BME280;5753;54.402;10.220;2023-09-08T02:24:38;102191.25;;;28.09;45.80
11395;BME280;5753;54.402;10.220;2023-09-08T02:27:04;102200.72;;;28.16;45.69
11395;BME280;5753;54.402;10.220;2023-09-08T02:29:31;102202.41;;;28.18;45.70
11395;BME280;5753;54.402;10.220;2023-09-08T02:31:57;102194.78;;;28.09;46.00
11395;BME280;5753;54.402;10.220;2023-09-08T02:34:23;102197.72;;;28.02;45.21
11395;BME280;5753;54.402;10.220;2023-09-08T02:36:50;102192.47;;;28.00;45.91
11395;BME280;5753;54.402;10.220;2023-09-08T02:39:16;102190.69;;;28.01;45.96
11395;BME280;5753;54.402;10.220;2023-09-08T02:41:42;102193.50;;;27.96;45.76
11395;BME280;5753;54.402;10.220;2023-09-08T02:44:09;102182.56;;;28.05;45.95
11395;BME280;5753;54.402;10.220;2023-09-08T02:46:35;102183.47;;;28.04;45.83
11395;BME280;5753;54.402;10.220;2023-09-08T02:49:01;102182.91;;;27.96;45.93
11395;BME280;5753;54.402;10.220;2023-09-08T02:51:27;102181.06;;;27.98;45.48
11395;BME280;5753;54.402;10.220;2023-09-08T02:53:53;102179.44;;;27.94;45.88
11395;BME280;5753;54.402;10.220;2023-09-08T02:56:19;102176.72;;;27.96;45.43
11395;BME280;5753;54.402;10.220;2023-09-08T02:58:45;102178.50;;;27.95;45.92
11395;BME280;5753;54.402;10.220;2023-09-08T03:01:16;102171.59;;;27.91;45.44
11395;BME280;5753;54.402;10.220;2023-09-08T03:03:46;102170.81;;;27.87;45.46
11395;BME280;5753;54.402;10.220;2023-09-08T03:06:17;102179.03;;;27.80;45.47
11395;BME280;5753;54.402;10.220;2023-09-08T03:08:43;102171.25;;;27.75;45.72
11395;BME280;5753;54.402;10.220;2023-09-08T03:11:09;102179.03;;;27.80;45.71
11395;BME280;5753;54.402;10.220;2023-09-08T03:13:36;102175.88;;;27.69;45.46
11395;BME280;5753;54.402;10.220;2023-09-08T03:16:03;102181.53;;;27.58;45.50
11395;BME280;5753;54.402;10.220;2023-09-08T03:18:31;102170.13;;;27.56;45.28
11395;BME280;5753;54.402;10.220;2023-09-08T03:20:58;102174.06;;;27.43;45.18
11395;BME280;5753;54.402;10.220;2023-09-08T03:23:25;102167.34;;;27.33;45.06
11395;BME280;5753;54.402;10.220;2023-09-08T03:25:51;102177.06;;;27.32;45.30
11395;BME280;5753;54.402;10.220;2023-09-08T03:28:17;102169.25;;;27.29;45.31
11395;BME280;5753;54.402;10.220;2023-09-08T03:30:43;102171.03;;;27.28;45.78
11395;BME280;5753;54.402;10.220;2023-09-08T03:33:09;102166.78;;;27.23;45.52
11395;BME280;5753;54.402;10.220;2023-09-08T03:35:35;102167.81;;;27.19;45.37
11395;BME280;5753;54.402;10.220;2023-09-08T03:38:01;102165.38;;;27.13;44.94
11395;BME280;5753;54.402;10.220;2023-09-08T03:40:27;102164.50;;;27.12;45.62
11395;BME280;5753;54.402;10.220;2023-09-08T03:42:53;102169.03;;;27.09;45.77
11395;BME280;5753;54.402;10.220;2023-09-08T03:45:20;102161.22;;;27.04;45.87
11395;BME280;5753;54.402;10.220;2023-09-08T03:47:46;102157.72;;;27.04;45.88
11395;BME280;5753;54.402;10.220;2023-09-08T03:50:12;102154.22;;;27.03;45.56
11395;BME280;5753;54.402;10.220;2023-09-08T03:52:38;102151.63;;;27.02;45.62
11395;BME280;5753;54.402;10.220;2023-09-08T03:55:04;102153.44;;;27.00;45.12
11395;BME280;5753;54.402;10.220;2023-09-08T03:57:31;102144.72;;;26.94;45.46
11395;BME280;5753;54.402;10.220;2023-09-08T03:59:57;102144.00;;;26.89;45.66
11395;BME280;5753;54.402;10.220;2023-09-08T04:02:23;102139.81;;;26.82;45.47
11395;BME280;5753;54.402;10.220;2023-09-08T04:04:49;102152.22;;;26.80;45.73
11395;BME280;5753;54.402;10.220;2023-09-08T04:07:15;102144.34;;;26.79;45.42
11395;BME280;5753;54.402;10.220;2023-09-08T04:09:41;102143.47;;;26.78;45.77
11395;BME280;5753;54.402;10.220;2023-09-08T04:12:08;102143.47;;;26.78;45.63
11395;BME280;5753;54.402;10.220;2023-09-08T04:14:36;102140.00;;;26.76;45.23
11395;BME280;5753;54.402;10.220;2023-09-08T04:17:03;102147.03;;;26.77;45.85
11395;BME280;5753;54.402;10.220;2023-09-08T04:19:29;102144.50;;;26.74;45.23
11395;BME280;5753;54.402;10.220;2023-09-08T04:21:55;102140.22;;;26.70;45.18
11395;BME280;5753;54.402;10.220;2023-09-08T04:24:21;102137.72;;;26.65;45.58
11395;BME280;5753;54.402;10.220;2023-09-08T04:26:47;102134.25;;;26.63;45.57
11395;BME280;5753;54.402;10.220;2023-09-08T04:29:13;102142.09;;;26.66;45.49
11395;BME280;5753;54.402;10.220;2023-09-08T04:31:39;102138.66;;;26.63;45.70
11395;BME280;5753;54.402;10.220;2023-09-08T04:34:05;102136.13;;;26.60;45.73
11395;BME280;5753;54.402;10.220;2023-09-08T04:36:31;102134.38;;;26.59;45.73
11395;BME280;5753;54.402;10.220;2023-09-08T04:38:57;102131.75;;;26.59;45.31
11395;BME280;5753;54.402;10.220;2023-09-08T04:41:23;102130.06;;;26.56;45.32
11395;BME280;5753;54.402;10.220;2023-09-08T04:43:49;102129.19;;;26.56;45.54
11395;BME280;5753;54.402;10.220;2023-09-08T04:46:15;102122.69;;;26.66;45.75
11395;BME280;5753;54.402;10.220;2023-09-08T04:48:41;102117.69;;;26.57;45.35
11395;BME280;5753;54.402;10.220;2023-09-08T04:51:08;102128.19;;;26.60;45.57
11395;BME280;5753;54.402;10.220;2023-09-08T04:53:34;102120.06;;;26.66;45.55
11395;BME280;5753;54.402;10.220;2023-09-08T04:56:02;102122.66;;;26.67;45.57
11395;BME280;5753;54.402;10.220;2023-09-08T04:58:28;102128.00;;;26.66;45.53
11395;BME280;5753;54.402;10.220;2023-09-08T05:00:54;102124.25;;;26.73;45.76
11395;BME280;5753;54.402;10.220;2023-09-08T05:03:21;102118.94;;;26.73;45.87
11395;BME280;5753;54.402;10.220;2023-09-08T05:05:47;102123.28;;;26.76;45.93
11395;BME280;5753;54.402;10.220;2023-09-08T05:08:13;102124.13;;;26.76;45.64
11395;BME280;5753;54.402;10.220;2023-09-08T05:10:39;102125.00;;;26.77;45.65
11395;BME280;5753;54.402;10.220;2023-09-08T05:13:05;102124.91;;;26.80;46.23
11395;BME280;5753;54.402;10.220;2023-09-08T05:15:31;102125.69;;;26.83;45.68
11395;BME280;5753;54.402;10.220;2023-09-08T05:17:57;102133.50;;;26.86;45.44
11395;BME280;5753;54.402;10.220;2023-09-08T05:20:23;102131.53;;;26.93;45.85
11395;BME280;5753;54.402;10.220;2023-09-08T05:22:50;102141.13;;;26.99;45.35
11395;BME280;5753;54.402;10.220;2023-09-08T05:25:16;102130.53;;;26.99;45.61
11395;BME280;5753;54.402;10.220;2023-09-08T05:27:42;102132.06;;;27.06;45.75
11395;BME280;5753;54.402;10.220;2023-09-08T05:30:09;102137.47;;;27.03;45.68
11395;BME280;5753;54.402;10.220;2023-09-08T05:32:35;102133.00;;;27.05;45.56
11395;BME280;5753;54.402;10.220;2023-09-08T05:35:02;102135.53;;;27.08;45.64
11395;BME280;5753;54.402;10.220;2023-09-08T05:37:28;102138.06;;;27.11;45.65
11395;BME280;5753;54.402;10.220;2023-09-08T05:39:54;102137.06;;;27.15;45.63
11395;BME280;5753;54.402;10.220;2023-09-08T05:42:21;102138.59;;;27.22;45.62
11395;BME280;5753;54.402;10.220;2023-09-08T05:44:47;102142.84;;;27.26;45.54
11395;BME280;5753;54.402;10.220;2023-09-08T05:47:14;102138.38;;;27.28;46.12
11395;BME280;5753;54.402;10.220;2023-09-08T05:49:40;102134.44;;;27.40;45.68
11395;BME280;5753;54.402;10.220;2023-09-08T05:52:06;102133.91;;;27.56;45.96
11395;BME280;5753;54.402;10.220;2023-09-08T05:54:32;102140.81;;;27.60;45.90
11395;BME280;5753;54.402;10.220;2023-09-08T05:56:58;102133.72;;;27.63;45.56
11395;BME280;5753;54.402;10.220;2023-09-08T05:59:24;102136.25;;;27.66;45.81
11395;BME280;5753;54.402;10.220;2023-09-08T06:01:50;102137.81;;;27.71;46.03
11395;BME280;5753;54.402;10.220;2023-09-08T06:04:16;102144.56;;;27.80;45.72
11395;BME280;5753;54.402;10.220;2023-09-08T06:06:43;102138.13;;;27.87;45.78
11395;BME280;5753;54.402;10.220;2023-09-08T06:09:09;102137.03;;;27.94;45.81
11395;BME280;5753;54.402;10.220;2023-09-08T06:11:37;102138.34;;;28.06;46.24
11395;BME280;5753;54.402;10.220;2023-09-08T06:14:04;102137.16;;;28.14;46.12
11395;BME280;5753;54.402;10.220;2023-09-08T06:16:30;102139.44;;;28.25;45.72
11395;BME280;5753;54.402;10.220;2023-09-08T06:18:56;102139.06;;;28.34;45.94
11395;BME280;5753;54.402;10.220;2023-09-08T06:21:22;102136.16;;;28.42;45.56
11395;BME280;5753;54.402;10.220;2023-09-08T06:23:48;102140.13;;;28.53;46.05
11395;BME280;5753;54.402;10.220;2023-09-08T06:26:15;102139.25;;;28.53;46.21
11395;BME280;5753;54.402;10.220;2023-09-08T06:28:41;102135.88;;;28.71;45.73
11395;BME280;5753;54.402;10.220;2023-09-08T06:31:09;102136.00;;;28.68;45.82
11395;BME280;5753;54.402;10.220;2023-09-08T06:33:35;102133.16;;;28.96;46.15
11395;BME280;5753;54.402;10.220;2023-09-08T06:36:01;102136.72;;;29.17;46.09
11395;BME280;5753;54.402;10.220;2023-09-08T06:38:27;102140.00;;;29.45;46.10
11395;BME280;5753;54.402;10.220;2023-09-08T06:40:57;102135.88;;;29.59;45.35
11395;BME280;5753;54.402;10.220;2023-09-08T06:43:24;102139.31;;;30.01;44.68
11395;BME280;5753;54.402;10.220;2023-09-08T06:45:50;102128.50;;;30.06;45.30
11395;BME280;5753;54.402;10.220;2023-09-08T06:48:16;102136.34;;;29.89;44.44
11395;BME280;5753;54.402;10.220;2023-09-08T06:50:42;102137.31;;;30.64;44.03
11395;BME280;5753;54.402;10.220;2023-09-08T06:53:08;102131.66;;;31.08;44.46
11395;BME280;5753;54.402;10.220;2023-09-08T06:55:35;102132.00;;;31.19;43.81
11395;BME280;5753;54.402;10.220;2023-09-08T06:58:01;102128.72;;;31.49;42.79
11395;BME280;5753;54.402;10.220;2023-09-08T07:00:27;102127.88;;;31.31;42.76
11395;BME280;5753;54.402;10.220;2023-09-08T07:02:54;102125.88;;;31.69;42.92
11395;BME280;5753;54.402;10.220;2023-09-08T07:05:20;102136.09;;;31.96;42.59
11395;BME280;5753;54.402;10.220;2023-09-08T07:07:46;102135.66;;;32.03;42.21
11395;BME280;5753;54.402;10.220;2023-09-08T07:10:12;102136.69;;;32.01;41.52
11395;BME280;5753;54.402;10.220;2023-09-08T07:12:38;102134.91;;;32.34;42.67
11395;BME280;5753;54.402;10.220;2023-09-08T07:15:05;102140.38;;;32.64;42.16
11395;BME280;5753;54.402;10.220;2023-09-08T07:17:31;102143.25;;;32.60;40.87
11395;BME280;5753;54.402;10.220;2023-09-08T07:19:57;102134.16;;;32.95;41.46
11395;BME280;5753;54.402;10.220;2023-09-08T07:22:23;102134.81;;;33.14;41.00
11395;BME280;5753;54.402;10.220;2023-09-08T07:24:49;102137.38;;;33.32;40.33
11395;BME280;5753;54.402;10.220;2023-09-08T07:27:15;102130.13;;;33.34;40.24
11395;BME280;5753;54.402;10.220;2023-09-08T07:29:41;102124.69;;;33.65;39.51
11395;BME280;5753;54.402;10.220;2023-09-08T07:32:08;102118.94;;;33.71;38.56
11395;BME280;5753;54.402;10.220;2023-09-08T07:34:34;102117.34;;;32.93;39.03
11395;BME280;5753;54.402;10.220;2023-09-08T07:37:01;102117.63;;;33.93;38.45
11395;BME280;5753;54.402;10.220;2023-09-08T07:39:27;102118.31;;;33.38;37.65
11395;BME280;5753;54.402;10.220;2023-09-08T07:41:53;102122.91;;;33.94;37.52
11395;BME280;5753;54.402;10.220;2023-09-08T07:44:22;102128.06;;;33.53;37.19
11395;BME280;5753;54.402;10.220;2023-09-08T07:46:48;102115.88;;;33.63;35.88
11395;BME280;5753;54.402;10.220;2023-09-08T07:49:18;102111.31;;;34.22;35.95
11395;BME280;5753;54.402;10.220;2023-09-08T07:51:46;102122.00;;;33.79;36.10
11395;BME280;5753;54.402;10.220;2023-09-08T07:54:12;102109.91;;;33.88;35.17
11395;BME280;5753;54.402;10.220;2023-09-08T07:56:38;102113.41;;;33.74;35.28
11395;BME280;5753;54.402;10.220;2023-09-08T07:59:06;102110.69;;;33.16;36.27
11395;BME280;5753;54.402;10.220;2023-09-08T08:01:33;102111.03;;;34.27;34.86
11395;BME280;5753;54.402;10.220;2023-09-08T08:03:59;102116.03;;;34.33;34.59
11395;BME280;5753;54.402;10.220;2023-09-08T08:06:25;102114.00;;;34.22;34.90
11395;BME280;5753;54.402;10.220;2023-09-08T08:08:52;102110.72;;;34.31;33.93
11395;BME280;5753;54.402;10.220;2023-09-08T08:11:18;102106.16;;;34.19;34.58
11395;BME280;5753;54.402;10.220;2023-09-08T08:13:46;102106.88;;;34.50;34.13
11395;BME280;5753;54.402;10.220;2023-09-08T08:16:12;102107.53;;;34.12;34.51
11395;BME280;5753;54.402;10.220;2023-09-08T08:18:38;102104.94;;;33.38;35.43
11395;BME280;5753;54.402;10.220;2023-09-08T08:21:04;102114.50;;;34.70;33.91
11395;BME280;5753;54.402;10.220;2023-09-08T08:23:31;102113.06;;;33.95;35.12
11395;BME280;5753;54.402;10.220;2023-09-08T08:25:57;102114.16;;;35.28;32.94
11395;BME280;5753;54.402;10.220;2023-09-08T08:28:24;102109.19;;;35.75;33.11
11395;BME280;5753;54.402;10.220;2023-09-08T08:30:52;102106.94;;;34.21;33.77
11395;BME280;5753;54.402;10.220;2023-09-08T08:33:18;102107.16;;;35.00;33.28
11395;BME280;5753;54.402;10.220;2023-09-08T08:35:51;102106.94;;;35.03;33.30
11395;BME280;5753;54.402;10.220;2023-09-08T08:38:17;102107.19;;;35.13;32.76
11395;BME280;5753;54.402;10.220;2023-09-08T08:40:44;102102.50;;;34.90;32.94
11395;BME280;5753;54.402;10.220;2023-09-08T08:43:11;102099.53;;;34.80;33.44
11395;BME280;5753;54.402;10.220;2023-09-08T08:45:38;102096.78;;;34.55;33.64
11395;BME280;5753;54.402;10.220;2023-09-08T08:48:05;102098.63;;;34.94;33.28
11395;BME280;5753;54.402;10.220;2023-09-08T08:50:33;102095.69;;;35.63;32.66
11395;BME280;5753;54.402;10.220;2023-09-08T08:53:00;102091.44;;;34.26;33.50
11395;BME280;5753;54.402;10.220;2023-09-08T08:55:30;102084.94;;;34.71;33.43
11395;BME280;5753;54.402;10.220;2023-09-08T08:58:03;102081.38;;;34.85;32.50
11395;BME280;5753;54.402;10.220;2023-09-08T09:00:30;102086.97;;;35.34;32.41
11395;BME280;5753;54.402;10.220;2023-09-08T09:02:56;102077.00;;;35.87;31.67
11395;BME280;5753;54.402;10.220;2023-09-08T09:05:24;102081.53;;;35.61;32.07
11395;BME280;5753;54.402;10.220;2023-09-08T09:07:50;102078.19;;;36.69;30.99
11395;BME280;5753;54.402;10.220;2023-09-08T09:10:17;102075.69;;;36.55;31.18
11395;BME280;5753;54.402;10.220;2023-09-08T09:12:44;102067.69;;;34.49;32.88
11395;BME280;5753;54.402;10.220;2023-09-08T09:15:10;102071.00;;;35.58;32.01
11395;BME280;5753;54.402;10.220;2023-09-08T09:17:37;102063.00;;;36.20;31.07
11395;BME280;5753;54.402;10.220;2023-09-08T09:20:17;102064.72;;;36.58;30.62
11395;BME280;5753;54.402;10.220;2023-09-08T09:22:48;102061.69;;;36.86;30.13
11395;BME280;5753;54.402;10.220;2023-09-08T09:25:22;102061.09;;;36.10;30.67
11395;BME280;5753;54.402;10.220;2023-09-08T09:27:53;102067.34;;;35.59;30.72
11395;BME280;5753;54.402;10.220;2023-09-08T09:30:19;102061.09;;;37.29;29.55
11395;BME280;5753;54.402;10.220;2023-09-08T09:32:45;102059.28;;;36.95;29.53
11395;BME280;5753;54.402;10.220;2023-09-08T09:35:11;102046.41;;;36.87;30.31
11395;BME280;5753;54.402;10.220;2023-09-08T09:37:41;102050.94;;;36.86;30.19
11395;BME280;5753;54.402;10.220;2023-09-08T09:40:07;102043.50;;;37.36;29.76
11395;BME280;5753;54.402;10.220;2023-09-08T09:42:38;102039.63;;;37.52;29.08
11395;BME280;5753;54.402;10.220;2023-09-08T09:45:06;102036.69;;;37.66;28.63
11395;BME280;5753;54.402;10.220;2023-09-08T09:47:33;102040.97;;;37.57;28.57
11395;BME280;5753;54.402;10.220;2023-09-08T09:49:59;102045.69;;;38.43;28.43
11395;BME280;5753;54.402;10.220;2023-09-08T09:52:25;102035.47;;;37.81;28.29
11395;BME280;5753;54.402;10.220;2023-09-08T09:54:53;102041.81;;;38.13;28.31
11395;BME280;5753;54.402;10.220;2023-09-08T09:57:22;102041.34;;;37.64;28.62
11395;BME280;5753;54.402;10.220;2023-09-08T09:59:49;102044.09;;;39.25;27.92
11395;BME280;5753;54.402;10.220;2023-09-08T10:02:18;102041.66;;;38.81;27.39
11395;BME280;5753;54.402;10.220;2023-09-08T10:04:48;102040.44;;;39.26;27.48
11395;BME280;5753;54.402;10.220;2023-09-08T10:07:16;102041.88;;;38.78;27.51
11395;BME280;5753;54.402;10.220;2023-09-08T10:09:43;102037.03;;;38.60;27.99
11395;BME280;5753;54.402;10.220;2023-09-08T10:12:09;102033.56;;;39.22;27.08
11395;BME280;5753;54.402;10.220;2023-09-08T10:14:41;102038.09;;;38.80;27.42
11395;BME280;5753;54.402;10.220;2023-09-08T10:17:15;102042.50;;;39.44;27.54
11395;BME280;5753;54.402;10.220;2023-09-08T10:19:45;102044.13;;;38.72;28.12
11395;BME280;5753;54.402;10.220;2023-09-08T10:22:19;102037.16;;;40.24;26.25
11395;BME280;5753;54.402;10.220;2023-09-08T10:24:46;102035.22;;;40.45;26.03
11395;BME280;5753;54.402;10.220;2023-09-08T10:27:14;102032.34;;;40.56;26.32
11395;BME280;5753;54.402;10.220;2023-09-08T10:29:40;102033.81;;;40.80;25.85
11395;BME280;5753;54.402;10.220;2023-09-08T10:32:08;102029.03;;;41.20;25.78
11395;BME280;5753;54.402;10.220;2023-09-08T10:34:36;102028.94;;;41.49;24.63
11395;BME280;5753;54.402;10.220;2023-09-08T10:37:17;102026.88;;;41.34;24.88
11395;BME280;5753;54.402;10.220;2023-09-08T10:39:43;102026.03;;;41.98;24.18
11395;BME280;5753;54.402;10.220;2023-09-08T10:47:11;102023.38;;;40.66;25.71
11395;BME280;5753;54.402;10.220;2023-09-08T10:49:38;102013.00;;;41.46;24.06
11395;BME280;5753;54.402;10.220;2023-09-08T10:52:13;102013.91;;;41.37;23.41
11395;BME280;5753;54.402;10.220;2023-09-08T10:54:44;102016.78;;;41.73;23.01
11395;BME280;5753;54.402;10.220;2023-09-08T10:57:17;102017.00;;;40.57;23.79
11395;BME280;5753;54.402;10.220;2023-09-08T10:59:55;102013.09;;;41.55;23.58
11395;BME280;5753;54.402;10.220;2023-09-08T11:02:37;102013.81;;;41.66;23.20
11395;BME280;5753;54.402;10.220;2023-09-08T11:05:09;102006.34;;;41.41;22.91
11395;BME280;5753;54.402;10.220;2023-09-08T11:07:39;102014.91;;;41.36;24.58
11395;BME280;5753;54.402;10.220;2023-09-08T11:10:06;102015.81;;;42.55;21.91
11395;BME280;5753;54.402;10.220;2023-09-08T11:12:32;102009.84;;;42.69;21.82
11395;BME280;5753;54.402;10.220;2023-09-08T11:15:01;102008.94;;;43.30;21.25
11395;BME280;5753;54.402;10.220;2023-09-08T11:17:35;102011.25;;;42.20;21.98
11395;BME280;5753;54.402;10.220;2023-09-08T11:20:02;101997.34;;;42.05;21.01
11395;BME280;5753;54.402;10.220;2023-09-08T11:22:37;102009.47;;;42.64;21.04
11395;BME280;5753;54.402;10.220;2023-09-08T11:25:03;102002.25;;;42.72;20.77
11395;BME280;5753;54.402;10.220;2023-09-08T11:27:32;101999.47;;;41.84;21.34
11395;BME280;5753;54.402;10.220;2023-09-08T11:29:58;102002.31;;;40.98;21.64
11395;BME280;5753;54.402;10.220;2023-09-08T11:32:31;101999.75;;;42.43;20.96
11395;BME280;5753;54.402;10.220;2023-09-08T11:35:05;102001.25;;;42.38;20.83
11395;BME280;5753;54.402;10.220;2023-09-08T11:37:38;101999.16;;;42.14;21.12
11395;BME280;5753;54.402;10.220;2023-09-08T11:40:09;101998.50;;;43.17;20.47
11395;BME280;5753;54.402;10.220;2023-09-08T11:42:35;101996.84;;;41.92;21.55
11395;BME280;5753;54.402;10.220;2023-09-08T11:45:01;102002.09;;;42.74;21.04
11395;BME280;5753;54.402;10.220;2023-09-08T11:47:30;102005.06;;;44.09;20.99
11395;BME280;5753;54.402;10.220;2023-09-08T11:49:57;102002.03;;;43.35;19.81
11395;BME280;5753;54.402;10.220;2023-09-08T11:52:24;102001.81;;;43.29;20.28
11395;BME280;5753;54.402;10.220;2023-09-08T11:54:50;101992.09;;;41.39;21.72
11395;BME280;5753;54.402;10.220;2023-09-08T11:57:17;101993.81;;;43.01;21.09
11395;BME280;5753;54.402;10.220;2023-09-08T11:59:44;102000.28;;;43.60;21.03
11395;BME280;5753;54.402;10.220;2023-09-08T12:02:14;102002.19;;;44.10;20.69
11395;BME280;5753;54.402;10.220;2023-09-08T12:04:40;101987.78;;;44.58;19.88
11395;BME280;5753;54.402;10.220;2023-09-08T12:07:12;101986.06;;;44.98;20.40
11395;BME280;5753;54.402;10.220;2023-09-08T12:09:43;101987.63;;;44.60;19.64
11395;BME280;5753;54.402;10.220;2023-09-08T12:12:12;101992.66;;;44.14;20.08
11395;BME280;5753;54.402;10.220;2023-09-08T12:14:42;101972.69;;;43.47;21.28
11395;BME280;5753;54.402;10.220;2023-09-08T12:17:08;101979.41;;;44.36;20.66
11395;BME280;5753;54.402;10.220;2023-09-08T12:19:35;101975.66;;;44.37;20.36
11395;BME280;5753;54.402;10.220;2023-09-08T12:22:06;101972.66;;;44.64;19.98
11395;BME280;5753;54.402;10.220;2023-09-08T12:27:23;101965.88;;;45.32;19.82
11395;BME280;5753;54.402;10.220;2023-09-08T12:30:07;101956.25;;;45.83;19.00
11395;BME280;5753;54.402;10.220;2023-09-08T12:32:34;101957.16;;;46.52;18.40
11395;BME280;5753;54.402;10.220;2023-09-08T12:35:03;101969.47;;;47.45;17.63
11395;BME280;5753;54.402;10.220;2023-09-08T12:37:32;101965.50;;;49.31;17.02
11395;BME280;5753;54.402;10.220;2023-09-08T12:39:58;101960.53;;;49.55;16.18
11395;BME280;5753;54.402;10.220;2023-09-08T12:42:26;101965.78;;;50.17;15.93
11395;BME280;5753;54.402;10.220;2023-09-08T12:44:55;101962.72;;;48.90;16.19
11395;BME280;5753;54.402;10.220;2023-09-08T12:47:21;101953.97;;;50.36;15.58
11395;BME280;5753;54.402;10.220;2023-09-08T12:49:48;101952.66;;;50.06;15.44
11395;BME280;5753;54.402;10.220;2023-09-08T12:52:14;101952.06;;;50.44;15.64
11395;BME280;5753;54.402;10.220;2023-09-08T12:54:40;101951.44;;;50.42;15.47
11395;BME280;5753;54.402;10.220;2023-09-08T12:57:06;101945.31;;;51.37;14.98
11395;BME280;5753;54.402;10.220;2023-09-08T12:59:32;101944.25;;;50.67;14.59